sensor_id;sensor_type;location;lat;lon;timestamp;P1;durP1;ratioP1;P2;durP2;ratioP2
3379;SDS011;1703;51.964;7.642;2023-02-28T00:00:00;10.07;;;6.43;;
3379;SDS011;1703;51.964;7.642;2023-02-28T00:02:35;12.97;;;6.70;;
3379;SDS011;1703;51.964;7.642;2023-02-28T00:05:02;12.43;;;5.87;;
3379;SDS011;1703;51.964;7.642;2023-02-28T00:07:30;12.47;;;6.57;;
3379;SDS011;1703;51.964;7.642;2023-02-28T00:10:02;12.60;;;5.53;;
3379;SDS011;1703;51.964;7.642;2023-02-28T00:12:32;8.60;;;5.47;;
3379;SDS011;1703;51.964;7.642;2023-02-28T00:14:59;10.20;;;6.20;;
3379;SDS011;1703;51.964;7.642;2023-02-28T00:17:26;10.57;;;5.93;;
3379;SDS011;1703;51.964;7.642;2023-02-28T00:19:53;7.47;;;5.23;;
3379;SDS011;1703;51.964;7.642;2023-02-28T00:22:20;7.40;;;5.67;;
3379;SDS011;1703;51.964;7.642;2023-02-28T00:24:47;6.63;;;5.40;;
3379;SDS011;1703;51.964;7.642;2023-02-28T00:27:15;8.83;;;6.30;;
3379;SDS011;1703;51.964;7.642;2023-02-28T00:29:42;6.20;;;5.57;;
3379;SDS011;1703;51.964;7.642;2023-02-28T00:32:09;8.63;;;6.33;;
3379;SDS011;1703;51.964;7.642;2023-02-28T00:34:36;14.43;;;5.80;;
3379;SDS011;1703;51.964;7.642;2023-02-28T00:37:04;8.63;;;6.57;;
3379;SDS011;1703;51.964;7.642;2023-02-28T00:39:33;10.13;;;6.67;;
3379;SDS011;1703;51.964;7.642;2023-02-28T00:42:01;12.20;;;7.33;;
3379;SDS011;1703;51.964;7.642;2023-02-28T00:44:30;8.00;;;5.40;;
3379;SDS011;1703;51.964;7.642;2023-02-28T00:46:57;12.27;;;6.17;;
3379;SDS011;1703;51.964;7.642;2023-02-28T00:49:24;10.30;;;5.73;;
3379;SDS011;1703;51.964;7.642;2023-02-28T00:51:51;7.90;;;5.93;;
3379;SDS011;1703;51.964;7.642;2023-02-28T00:54:19;9.33;;;6.33;;
3379;SDS011;1703;51.964;7.642;2023-02-28T00:56:46;7.27;;;6.03;;
3379;SDS011;1703;51.964;7.642;2023-02-28T00:59:13;8.67;;;7.10;;
3379;SDS011;1703;51.964;7.642;2023-02-28T01:01:43;11.13;;;7.20;;
3379;SDS011;1703;51.964;7.642;2023-02-28T01:04:11;11.77;;;7.30;;
3379;SDS011;1703;51.964;7.642;2023-02-28T01:06:38;15.10;;;6.33;;
3379;SDS011;1703;51.964;7.642;2023-02-28T01:09:05;11.00;;;6.80;;
3379;SDS011;1703;51.964;7.642;2023-02-28T01:11:33;8.40;;;5.90;;
3379;SDS011;1703;51.964;7.642;2023-02-28T01:14:00;24.13;;;7.43;;
3379;SDS011;1703;51.964;7.642;2023-02-28T01:16:27;14.43;;;6.00;;
3379;SDS011;1703;51.964;7.642;2023-02-28T01:18:56;12.60;;;6.73;;
3379;SDS011;1703;51.964;7.642;2023-02-28T01:21:23;16.10;;;7.67;;
3379;SDS011;1703;51.964;7.642;2023-02-28T01:23:50;15.60;;;8.20;;
3379;SDS011;1703;51.964;7.642;2023-02-28T01:26:18;15.10;;;8.37;;
3379;SDS011;1703;51.964;7.642;2023-02-28T01:28:46;13.83;;;7.37;;
3379;SDS011;1703;51.964;7.642;2023-02-28T01:31:13;10.10;;;6.50;;
3379;SDS011;1703;51.964;7.642;2023-02-28T01:33:40;9.80;;;6.10;;
3379;SDS011;1703;51.964;7.642;2023-02-28T01:36:10;19.47;;;7.10;;
3379;SDS011;1703;51.964;7.642;2023-02-28T01:38:39;10.43;;;7.40;;
3379;SDS011;1703;51.964;7.642;2023-02-28T01:41:06;11.53;;;6.80;;
3379;SDS011;1703;51.964;7.642;2023-02-28T01:43:52;10.80;;;6.00;;
3379;SDS011;1703;51.964;7.642;2023-02-28T01:46:24;10.40;;;6.03;;
3379;SDS011;1703;51.964;7.642;2023-02-28T01:48:53;9.93;;;5.27;;
3379;SDS011;1703;51.964;7.642;2023-02-28T01:51:26;8.77;;;5.43;;
3379;SDS011;1703;51.964;7.642;2023-02-28T01:53:57;6.50;;;4.70;;
3379;SDS011;1703;51.964;7.642;2023-02-28T01:56:27;7.33;;;5.60;;
3379;SDS011;1703;51.964;7.642;2023-02-28T01:58:56;10.20;;;5.07;;
3379;SDS011;1703;51.964;7.642;2023-02-28T02:01:24;6.37;;;4.60;;
3379;SDS011;1703;51.964;7.642;2023-02-28T02:03:54;6.17;;;5.00;;
3379;SDS011;1703;51.964;7.642;2023-02-28T02:06:26;5.13;;;4.67;;
3379;SDS011;1703;51.964;7.642;2023-02-28T02:08:56;13.43;;;6.23;;
3379;SDS011;1703;51.964;7.642;2023-02-28T02:11:22;9.63;;;4.57;;
3379;SDS011;1703;51.964;7.642;2023-02-28T02:13:57;11.63;;;5.70;;
3379;SDS011;1703;51.964;7.642;2023-02-28T02:16:40;11.33;;;6.17;;
3379;SDS011;1703;51.964;7.642;2023-02-28T02:19:25;10.10;;;4.70;;
3379;SDS011;1703;51.964;7.642;2023-02-28T02:22:19;7.67;;;5.13;;
3379;SDS011;1703;51.964;7.642;2023-02-28T02:24:58;8.23;;;3.60;;
3379;SDS011;1703;51.964;7.642;2023-02-28T02:27:48;5.93;;;4.73;;
3379;SDS011;1703;51.964;7.642;2023-02-28T02:33:35;5.17;;;4.20;;
3379;SDS011;1703;51.964;7.642;2023-02-28T02:36:32;6.40;;;3.73;;
3379;SDS011;1703;51.964;7.642;2023-02-28T02:39:02;6.43;;;4.63;;
3379;SDS011;1703;51.964;7.642;2023-02-28T02:41:36;12.53;;;5.23;;
3379;SDS011;1703;51.964;7.642;2023-02-28T02:44:06;8.73;;;5.47;;
3379;SDS011;1703;51.964;7.642;2023-02-28T02:46:40;9.93;;;4.20;;
3379;SDS011;1703;51.964;7.642;2023-02-28T02:49:11;8.13;;;4.50;;
3379;SDS011;1703;51.964;7.642;2023-02-28T02:51:43;8.53;;;4.50;;
3379;SDS011;1703;51.964;7.642;2023-02-28T02:54:12;10.20;;;4.70;;
3379;SDS011;1703;51.964;7.642;2023-02-28T02:56:44;8.13;;;4.80;;
3379;SDS011;1703;51.964;7.642;2023-02-28T02:59:15;9.23;;;5.90;;
3379;SDS011;1703;51.964;7.642;2023-02-28T03:01:47;8.83;;;5.30;;
3379;SDS011;1703;51.964;7.642;2023-02-28T03:04:17;7.50;;;4.17;;
3379;SDS011;1703;51.964;7.642;2023-02-28T03:06:47;5.97;;;4.13;;
3379;SDS011;1703;51.964;7.642;2023-02-28T03:09:14;6.87;;;5.20;;
3379;SDS011;1703;51.964;7.642;2023-02-28T03:11:41;7.60;;;4.80;;
3379;SDS011;1703;51.964;7.642;2023-02-28T03:14:10;12.50;;;5.70;;
3379;SDS011;1703;51.964;7.642;2023-02-28T03:16:55;18.53;;;5.23;;
3379;SDS011;1703;51.964;7.642;2023-02-28T03:22:22;5.87;;;4.50;;
3379;SDS011;1703;51.964;7.642;2023-02-28T03:25:04;9.03;;;4.87;;
3379;SDS011;1703;51.964;7.642;2023-02-28T03:27:36;7.23;;;5.30;;
3379;SDS011;1703;51.964;7.642;2023-02-28T03:30:06;12.80;;;5.03;;
3379;SDS011;1703;51.964;7.642;2023-02-28T03:32:38;8.10;;;5.47;;
3379;SDS011;1703;51.964;7.642;2023-02-28T03:35:14;8.27;;;4.73;;
3379;SDS011;1703;51.964;7.642;2023-02-28T03:37:49;8.53;;;5.03;;
3379;SDS011;1703;51.964;7.642;2023-02-28T03:40:20;11.90;;;5.13;;
3379;SDS011;1703;51.964;7.642;2023-02-28T03:42:50;5.67;;;4.30;;
3379;SDS011;1703;51.964;7.642;2023-02-28T03:45:21;4.83;;;4.43;;
3379;SDS011;1703;51.964;7.642;2023-02-28T03:47:51;6.57;;;4.70;;
3379;SDS011;1703;51.964;7.642;2023-02-28T03:50:20;12.73;;;5.13;;
3379;SDS011;1703;51.964;7.642;2023-02-28T03:52:52;6.27;;;4.90;;
3379;SDS011;1703;51.964;7.642;2023-02-28T03:55:26;5.47;;;4.30;;
3379;SDS011;1703;51.964;7.642;2023-02-28T03:57:56;10.70;;;5.40;;
3379;SDS011;1703;51.964;7.642;2023-02-28T04:00:28;8.40;;;4.70;;
3379;SDS011;1703;51.964;7.642;2023-02-28T04:03:00;8.70;;;4.87;;
3379;SDS011;1703;51.964;7.642;2023-02-28T04:05:27;6.53;;;4.83;;
3379;SDS011;1703;51.964;7.642;2023-02-28T04:08:04;8.03;;;4.20;;
3379;SDS011;1703;51.964;7.642;2023-02-28T04:10:31;6.43;;;5.30;;
3379;SDS011;1703;51.964;7.642;2023-02-28T04:12:58;14.07;;;5.50;;
3379;SDS011;1703;51.964;7.642;2023-02-28T04:15:25;12.47;;;4.70;;
3379;SDS011;1703;51.964;7.642;2023-02-28T04:17:52;5.87;;;4.47;;
3379;SDS011;1703;51.964;7.642;2023-02-28T04:20:19;10.60;;;5.23;;
3379;SDS011;1703;51.964;7.642;2023-02-28T04:22:46;15.87;;;5.83;;
3379;SDS011;1703;51.964;7.642;2023-02-28T04:25:14;12.83;;;5.47;;
3379;SDS011;1703;51.964;7.642;2023-02-28T04:27:41;6.00;;;4.97;;
3379;SDS011;1703;51.964;7.642;2023-02-28T04:30:10;6.87;;;4.83;;
3379;SDS011;1703;51.964;7.642;2023-02-28T04:32:37;11.07;;;6.33;;
3379;SDS011;1703;51.964;7.642;2023-02-28T04:35:04;5.57;;;4.90;;
3379;SDS011;1703;51.964;7.642;2023-02-28T04:37:32;7.50;;;5.27;;
3379;SDS011;1703;51.964;7.642;2023-02-28T04:39:59;11.20;;;3.83;;
3379;SDS011;1703;51.964;7.642;2023-02-28T04:42:28;5.17;;;4.60;;
3379;SDS011;1703;51.964;7.642;2023-02-28T04:45:00;5.27;;;4.30;;
3379;SDS011;1703;51.964;7.642;2023-02-28T04:47:27;7.60;;;5.57;;
3379;SDS011;1703;51.964;7.642;2023-02-28T04:49:54;10.17;;;5.37;;
3379;SDS011;1703;51.964;7.642;2023-02-28T04:52:21;8.23;;;5.77;;
3379;SDS011;1703;51.964;7.642;2023-02-28T04:54:48;9.07;;;5.00;;
3379;SDS011;1703;51.964;7.642;2023-02-28T04:57:15;7.20;;;5.60;;
3379;SDS011;1703;51.964;7.642;2023-02-28T04:59:43;7.60;;;4.43;;
3379;SDS011;1703;51.964;7.642;2023-02-28T05:02:10;13.23;;;5.37;;
3379;SDS011;1703;51.964;7.642;2023-02-28T05:04:37;7.43;;;4.63;;
3379;SDS011;1703;51.964;7.642;2023-02-28T05:07:03;6.00;;;5.07;;
3379;SDS011;1703;51.964;7.642;2023-02-28T05:09:30;12.50;;;5.33;;
3379;SDS011;1703;51.964;7.642;2023-02-28T05:11:58;7.03;;;4.77;;
3379;SDS011;1703;51.964;7.642;2023-02-28T05:14:25;5.20;;;4.70;;
3379;SDS011;1703;51.964;7.642;2023-02-28T05:16:53;7.07;;;4.73;;
3379;SDS011;1703;51.964;7.642;2023-02-28T05:19:20;8.03;;;4.80;;
3379;SDS011;1703;51.964;7.642;2023-02-28T05:21:50;5.07;;;4.50;;
3379;SDS011;1703;51.964;7.642;2023-02-28T05:24:18;5.93;;;3.77;;
3379;SDS011;1703;51.964;7.642;2023-02-28T05:26:48;10.23;;;5.33;;
3379;SDS011;1703;51.964;7.642;2023-02-28T05:29:16;8.57;;;5.30;;
3379;SDS011;1703;51.964;7.642;2023-02-28T05:31:43;13.40;;;6.30;;
3379;SDS011;1703;51.964;7.642;2023-02-28T05:34:11;11.73;;;4.70;;
3379;SDS011;1703;51.964;7.642;2023-02-28T05:36:38;10.10;;;4.93;;
3379;SDS011;1703;51.964;7.642;2023-02-28T05:39:05;8.07;;;5.27;;
3379;SDS011;1703;51.964;7.642;2023-02-28T05:41:32;4.83;;;4.37;;
3379;SDS011;1703;51.964;7.642;2023-02-28T05:43:59;5.87;;;4.33;;
3379;SDS011;1703;51.964;7.642;2023-02-28T05:46:26;6.73;;;4.60;;
3379;SDS011;1703;51.964;7.642;2023-02-28T05:48:53;5.77;;;4.40;;
3379;SDS011;1703;51.964;7.642;2023-02-28T05:51:22;10.00;;;5.40;;
3379;SDS011;1703;51.964;7.642;2023-02-28T05:53:48;6.37;;;4.60;;
3379;SDS011;1703;51.964;7.642;2023-02-28T05:56:15;9.20;;;4.80;;
3379;SDS011;1703;51.964;7.642;2023-02-28T05:58:42;4.33;;;3.73;;
3379;SDS011;1703;51.964;7.642;2023-02-28T06:01:27;9.97;;;4.40;;
3379;SDS011;1703;51.964;7.642;2023-02-28T06:03:58;15.33;;;5.80;;
3379;SDS011;1703;51.964;7.642;2023-02-28T06:06:27;7.13;;;5.23;;
3379;SDS011;1703;51.964;7.642;2023-02-28T06:08:55;7.03;;;5.10;;
3379;SDS011;1703;51.964;7.642;2023-02-28T06:11:22;4.07;;;3.60;;
3379;SDS011;1703;51.964;7.642;2023-02-28T06:13:52;9.63;;;6.17;;
3379;SDS011;1703;51.964;7.642;2023-02-28T06:16:19;12.93;;;6.27;;
3379;SDS011;1703;51.964;7.642;2023-02-28T06:18:46;8.97;;;5.50;;
3379;SDS011;1703;51.964;7.642;2023-02-28T06:21:13;11.00;;;6.90;;
3379;SDS011;1703;51.964;7.642;2023-02-28T06:23:41;11.50;;;6.90;;
3379;SDS011;1703;51.964;7.642;2023-02-28T06:26:09;9.73;;;7.03;;
3379;SDS011;1703;51.964;7.642;2023-02-28T06:28:35;12.10;;;7.07;;
3379;SDS011;1703;51.964;7.642;2023-02-28T06:31:05;18.87;;;8.20;;
3379;SDS011;1703;51.964;7.642;2023-02-28T06:33:33;17.03;;;8.50;;
3379;SDS011;1703;51.964;7.642;2023-02-28T06:36:00;16.27;;;8.17;;
3379;SDS011;1703;51.964;7.642;2023-02-28T06:38:27;10.53;;;7.70;;
3379;SDS011;1703;51.964;7.642;2023-02-28T06:40:55;11.17;;;7.37;;
3379;SDS011;1703;51.964;7.642;2023-02-28T06:43:23;12.23;;;7.40;;
3379;SDS011;1703;51.964;7.642;2023-02-28T06:45:53;14.87;;;7.90;;
3379;SDS011;1703;51.964;7.642;2023-02-28T06:48:21;11.87;;;6.00;;
3379;SDS011;1703;51.964;7.642;2023-02-28T06:50:48;8.37;;;5.93;;
3379;SDS011;1703;51.964;7.642;2023-02-28T06:53:16;40.07;;;7.60;;
3379;SDS011;1703;51.964;7.642;2023-02-28T06:55:42;10.93;;;7.07;;
3379;SDS011;1703;51.964;7.642;2023-02-28T06:58:11;10.50;;;5.70;;
3379;SDS011;1703;51.964;7.642;2023-02-28T07:00:43;12.57;;;7.30;;
3379;SDS011;1703;51.964;7.642;2023-02-28T07:03:11;9.53;;;6.03;;
3379;SDS011;1703;51.964;7.642;2023-02-28T07:05:40;24.53;;;7.07;;
3379;SDS011;1703;51.964;7.642;2023-02-28T07:08:07;14.90;;;8.37;;
3379;SDS011;1703;51.964;7.642;2023-02-28T07:10:34;14.10;;;7.37;;
3379;SDS011;1703;51.964;7.642;2023-02-28T07:13:04;17.10;;;6.57;;
3379;SDS011;1703;51.964;7.642;2023-02-28T07:15:32;11.37;;;6.10;;
3379;SDS011;1703;51.964;7.642;2023-02-28T07:17:59;12.23;;;6.33;;
3379;SDS011;1703;51.964;7.642;2023-02-28T07:20:26;8.00;;;5.07;;
3379;SDS011;1703;51.964;7.642;2023-02-28T07:22:53;7.00;;;5.23;;
3379;SDS011;1703;51.964;7.642;2023-02-28T07:25:21;13.20;;;5.17;;
3379;SDS011;1703;51.964;7.642;2023-02-28T07:27:48;14.17;;;5.83;;
3379;SDS011;1703;51.964;7.642;2023-02-28T07:30:15;6.50;;;4.47;;
3379;SDS011;1703;51.964;7.642;2023-02-28T07:32:44;9.27;;;5.10;;
3379;SDS011;1703;51.964;7.642;2023-02-28T07:35:10;6.23;;;4.90;;
3379;SDS011;1703;51.964;7.642;2023-02-28T07:37:38;7.80;;;4.70;;
3379;SDS011;1703;51.964;7.642;2023-02-28T07:40:07;4.37;;;3.97;;
3379;SDS011;1703;51.964;7.642;2023-02-28T07:42:36;10.20;;;5.23;;
3379;SDS011;1703;51.964;7.642;2023-02-28T07:45:04;9.80;;;5.47;;
3379;SDS011;1703;51.964;7.642;2023-02-28T07:47:31;13.47;;;5.23;;
3379;SDS011;1703;51.964;7.642;2023-02-28T07:50:00;11.70;;;4.70;;
3379;SDS011;1703;51.964;7.642;2023-02-28T07:52:27;15.40;;;5.40;;
3379;SDS011;1703;51.964;7.642;2023-02-28T07:54:54;10.43;;;5.20;;
3379;SDS011;1703;51.964;7.642;2023-02-28T07:57:21;9.90;;;4.83;;
3379;SDS011;1703;51.964;7.642;2023-02-28T07:59:48;6.60;;;4.70;;
3379;SDS011;1703;51.964;7.642;2023-02-28T08:02:15;7.37;;;4.63;;
3379;SDS011;1703;51.964;7.642;2023-02-28T08:04:43;14.90;;;4.80;;
3379;SDS011;1703;51.964;7.642;2023-02-28T08:07:13;4.27;;;3.80;;
3379;SDS011;1703;51.964;7.642;2023-02-28T08:09:41;10.07;;;4.23;;
3379;SDS011;1703;51.964;7.642;2023-02-28T08:12:09;9.70;;;3.90;;
3379;SDS011;1703;51.964;7.642;2023-02-28T08:14:36;8.57;;;4.50;;
3379;SDS011;1703;51.964;7.642;2023-02-28T08:17:04;4.23;;;3.70;;
3379;SDS011;1703;51.964;7.642;2023-02-28T08:19:31;7.77;;;3.77;;
3379;SDS011;1703;51.964;7.642;2023-02-28T08:21:58;4.80;;;3.20;;
3379;SDS011;1703;51.964;7.642;2023-02-28T08:24:27;4.93;;;3.60;;
3379;SDS011;1703;51.964;7.642;2023-02-28T08:26:54;6.10;;;3.30;;
3379;SDS011;1703;51.964;7.642;2023-02-28T08:29:21;7.23;;;3.90;;
3379;SDS011;1703;51.964;7.642;2023-02-28T08:31:47;4.43;;;3.10;;
3379;SDS011;1703;51.964;7.642;2023-02-28T08:34:15;4.77;;;3.13;;
3379;SDS011;1703;51.964;7.642;2023-02-28T08:36:42;4.77;;;2.40;;
3379;SDS011;1703;51.964;7.642;2023-02-28T08:39:10;3.40;;;2.80;;
3379;SDS011;1703;51.964;7.642;2023-02-28T08:41:38;6.90;;;3.00;;
3379;SDS011;1703;51.964;7.642;2023-02-28T08:44:06;3.50;;;2.57;;
3379;SDS011;1703;51.964;7.642;2023-02-28T08:46:33;8.10;;;2.70;;
3379;SDS011;1703;51.964;7.642;2023-02-28T08:49:00;5.90;;;3.10;;
3379;SDS011;1703;51.964;7.642;2023-02-28T08:51:27;3.23;;;2.57;;
3379;SDS011;1703;51.964;7.642;2023-02-28T08:54:01;2.77;;;2.30;;
3379;SDS011;1703;51.964;7.642;2023-02-28T08:56:28;7.47;;;2.47;;
3379;SDS011;1703;51.964;7.642;2023-02-28T08:58:57;3.07;;;2.43;;
3379;SDS011;1703;51.964;7.642;2023-02-28T09:01:24;3.20;;;2.73;;
3379;SDS011;1703;51.964;7.642;2023-02-28T09:03:53;2.60;;;2.30;;
3379;SDS011;1703;51.964;7.642;2023-02-28T09:06:22;11.20;;;3.27;;
3379;SDS011;1703;51.964;7.642;2023-02-28T09:08:51;3.27;;;2.20;;
3379;SDS011;1703;51.964;7.642;2023-02-28T09:11:18;3.03;;;2.70;;
3379;SDS011;1703;51.964;7.642;2023-02-28T09:13:46;2.87;;;2.57;;
3379;SDS011;1703;51.964;7.642;2023-02-28T09:16:15;8.50;;;2.77;;
3379;SDS011;1703;51.964;7.642;2023-02-28T09:18:42;2.13;;;1.93;;
3379;SDS011;1703;51.964;7.642;2023-02-28T09:21:11;8.20;;;2.20;;
3379;SDS011;1703;51.964;7.642;2023-02-28T09:23:39;2.73;;;2.30;;
3379;SDS011;1703;51.964;7.642;2023-02-28T09:26:29;3.13;;;2.10;;
3379;SDS011;1703;51.964;7.642;2023-02-28T09:29:07;3.13;;;2.17;;
3379;SDS011;1703;51.964;7.642;2023-02-28T09:31:35;1.63;;;1.53;;
3379;SDS011;1703;51.964;7.642;2023-02-28T09:34:03;1.50;;;1.40;;
3379;SDS011;1703;51.964;7.642;2023-02-28T09:36:30;1.70;;;1.40;;
3379;SDS011;1703;51.964;7.642;2023-02-28T09:38:58;2.37;;;1.30;;
3379;SDS011;1703;51.964;7.642;2023-02-28T09:41:28;5.00;;;1.20;;
3379;SDS011;1703;51.964;7.642;2023-02-28T09:44:07;1.53;;;1.43;;
3379;SDS011;1703;51.964;7.642;2023-02-28T09:46:49;1.30;;;1.20;;
3379;SDS011;1703;51.964;7.642;2023-02-28T09:49:22;4.13;;;1.70;;
3379;SDS011;1703;51.964;7.642;2023-02-28T09:51:53;8.20;;;1.90;;
3379;SDS011;1703;51.964;7.642;2023-02-28T09:54:26;2.40;;;1.40;;
3379;SDS011;1703;51.964;7.642;2023-02-28T09:56:55;1.77;;;1.13;;
3379;SDS011;1703;51.964;7.642;2023-02-28T10:02:53;1.60;;;1.40;;
3379;SDS011;1703;51.964;7.642;2023-02-28T10:05:31;8.90;;;2.10;;
3379;SDS011;1703;51.964;7.642;2023-02-28T10:08:03;1.53;;;1.00;;
3379;SDS011;1703;51.964;7.642;2023-02-28T10:10:37;11.57;;;1.33;;
3379;SDS011;1703;51.964;7.642;2023-02-28T10:13:12;1.10;;;0.70;;
3379;SDS011;1703;51.964;7.642;2023-02-28T10:15:43;1.10;;;1.00;;
3379;SDS011;1703;51.964;7.642;2023-02-28T10:18:15;2.43;;;0.80;;
3379;SDS011;1703;51.964;7.642;2023-02-28T10:20:47;3.13;;;1.27;;
3379;SDS011;1703;51.964;7.642;2023-02-28T10:23:16;8.33;;;1.40;;
3379;SDS011;1703;51.964;7.642;2023-02-28T10:25:47;7.03;;;1.57;;
3379;SDS011;1703;51.964;7.642;2023-02-28T10:28:19;2.80;;;1.40;;
3379;SDS011;1703;51.964;7.642;2023-02-28T10:30:46;0.80;;;0.80;;
3379;SDS011;1703;51.964;7.642;2023-02-28T10:33:20;2.97;;;1.20;;
3379;SDS011;1703;51.964;7.642;2023-02-28T10:35:49;1.20;;;0.90;;
3379;SDS011;1703;51.964;7.642;2023-02-28T10:38:17;2.13;;;1.10;;
3379;SDS011;1703;51.964;7.642;2023-02-28T10:40:46;4.63;;;1.20;;
3379;SDS011;1703;51.964;7.642;2023-02-28T10:43:18;12.90;;;1.47;;
3379;SDS011;1703;51.964;7.642;2023-02-28T10:45:57;1.23;;;1.10;;
3379;SDS011;1703;51.964;7.642;2023-02-28T10:48:32;2.00;;;1.20;;
3379;SDS011;1703;51.964;7.642;2023-02-28T10:51:02;2.53;;;1.20;;
3379;SDS011;1703;51.964;7.642;2023-02-28T10:53:31;3.67;;;1.40;;
3379;SDS011;1703;51.964;7.642;2023-02-28T10:56:02;9.90;;;1.57;;
3379;SDS011;1703;51.964;7.642;2023-02-28T10:58:31;3.50;;;1.30;;
3379;SDS011;1703;51.964;7.642;2023-02-28T11:01:11;2.50;;;1.97;;
3379;SDS011;1703;51.964;7.642;2023-02-28T11:03:44;1.57;;;1.33;;
3379;SDS011;1703;51.964;7.642;2023-02-28T11:06:16;4.87;;;1.57;;
3379;SDS011;1703;51.964;7.642;2023-02-28T11:08:52;1.60;;;1.50;;
3379;SDS011;1703;51.964;7.642;2023-02-28T11:11:21;1.37;;;1.20;;
3379;SDS011;1703;51.964;7.642;2023-02-28T11:13:50;2.87;;;1.70;;
3379;SDS011;1703;51.964;7.642;2023-02-28T11:16:19;2.13;;;1.20;;
3379;SDS011;1703;51.964;7.642;2023-02-28T11:18:48;1.70;;;1.13;;
3379;SDS011;1703;51.964;7.642;2023-02-28T11:21:18;1.90;;;1.40;;
3379;SDS011;1703;51.964;7.642;2023-02-28T11:23:49;2.20;;;1.67;;
3379;SDS011;1703;51.964;7.642;2023-02-28T11:29:09;3.10;;;1.20;;
3379;SDS011;1703;51.964;7.642;2023-02-28T11:31:49;2.67;;;1.30;;
3379;SDS011;1703;51.964;7.642;2023-02-28T11:34:29;1.60;;;1.50;;
3379;SDS011;1703;51.964;7.642;2023-02-28T11:36:58;2.57;;;1.30;;
3379;SDS011;1703;51.964;7.642;2023-02-28T11:39:29;1.30;;;1.20;;
3379;SDS011;1703;51.964;7.642;2023-02-28T11:47:48;1.67;;;1.57;;
3379;SDS011;1703;51.964;7.642;2023-02-28T11:53:22;1.50;;;1.40;;
3379;SDS011;1703;51.964;7.642;2023-02-28T11:56:01;1.47;;;1.20;;
3379;SDS011;1703;51.964;7.642;2023-02-28T11:58:37;2.57;;;1.40;;
3379;SDS011;1703;51.964;7.642;2023-02-28T12:01:15;3.73;;;1.20;;
3379;SDS011;1703;51.964;7.642;2023-02-28T12:03:58;2.60;;;1.37;;
3379;SDS011;1703;51.964;7.642;2023-02-28T12:06:36;4.80;;;1.20;;
3379;SDS011;1703;51.964;7.642;2023-02-28T12:09:23;6.10;;;1.67;;
3379;SDS011;1703;51.964;7.642;2023-02-28T12:12:05;4.20;;;1.23;;
3379;SDS011;1703;51.964;7.642;2023-02-28T12:14:49;1.40;;;1.00;;
3379;SDS011;1703;51.964;7.642;2023-02-28T12:17:50;2.20;;;1.70;;
3379;SDS011;1703;51.964;7.642;2023-02-28T12:20:31;1.90;;;1.50;;
3379;SDS011;1703;51.964;7.642;2023-02-28T12:26:26;3.13;;;1.70;;
3379;SDS011;1703;51.964;7.642;2023-02-28T12:29:05;4.30;;;2.03;;
3379;SDS011;1703;51.964;7.642;2023-02-28T12:31:46;4.23;;;2.30;;
3379;SDS011;1703;51.964;7.642;2023-02-28T12:34:20;5.17;;;2.13;;
3379;SDS011;1703;51.964;7.642;2023-02-28T12:36:51;3.93;;;1.97;;
3379;SDS011;1703;51.964;7.642;2023-02-28T12:39:23;2.07;;;1.77;;
3379;SDS011;1703;51.964;7.642;2023-02-28T12:41:53;2.53;;;1.77;;
3379;SDS011;1703;51.964;7.642;2023-02-28T12:44:23;1.87;;;1.63;;
3379;SDS011;1703;51.964;7.642;2023-02-28T12:46:55;3.37;;;2.90;;
3379;SDS011;1703;51.964;7.642;2023-02-28T12:49:27;5.23;;;2.10;;
3379;SDS011;1703;51.964;7.642;2023-02-28T12:52:01;7.20;;;2.10;;
3379;SDS011;1703;51.964;7.642;2023-02-28T12:54:35;4.33;;;2.20;;
3379;SDS011;1703;51.964;7.642;2023-02-28T12:57:13;2.77;;;1.90;;
3379;SDS011;1703;51.964;7.642;2023-02-28T12:59:48;1.90;;;1.70;;
3379;SDS011;1703;51.964;7.642;2023-02-28T13:02:30;1.80;;;1.50;;
3379;SDS011;1703;51.964;7.642;2023-02-28T13:08:48;2.90;;;2.27;;
3379;SDS011;1703;51.964;7.642;2023-02-28T13:11:39;3.13;;;2.50;;
3379;SDS011;1703;51.964;7.642;2023-02-28T13:14:18;3.90;;;1.83;;
3379;SDS011;1703;51.964;7.642;2023-02-28T13:17:01;2.10;;;1.63;;
3379;SDS011;1703;51.964;7.642;2023-02-28T13:19:36;3.10;;;2.10;;
3379;SDS011;1703;51.964;7.642;2023-02-28T13:22:05;1.57;;;1.40;;
3379;SDS011;1703;51.964;7.642;2023-02-28T13:24:46;1.60;;;1.20;;
3379;SDS011;1703;51.964;7.642;2023-02-28T13:27:22;2.43;;;1.53;;
3379;SDS011;1703;51.964;7.642;2023-02-28T13:33:17;7.60;;;5.50;;
3379;SDS011;1703;51.964;7.642;2023-02-28T13:35:50;4.80;;;3.60;;
3379;SDS011;1703;51.964;7.642;2023-02-28T13:38:36;5.13;;;2.10;;
3379;SDS011;1703;51.964;7.642;2023-02-28T13:44:08;3.83;;;1.73;;
3379;SDS011;1703;51.964;7.642;2023-02-28T13:46:38;4.37;;;1.73;;
3379;SDS011;1703;51.964;7.642;2023-02-28T13:49:41;3.00;;;1.87;;
3379;SDS011;1703;51.964;7.642;2023-02-28T13:52:10;2.70;;;1.30;;
3379;SDS011;1703;51.964;7.642;2023-02-28T13:54:45;2.13;;;1.77;;
3379;SDS011;1703;51.964;7.642;2023-02-28T13:57:26;2.80;;;1.70;;
3379;SDS011;1703;51.964;7.642;2023-02-28T14:00:06;5.03;;;3.30;;
3379;SDS011;1703;51.964;7.642;2023-02-28T14:02:46;1.90;;;1.70;;
3379;SDS011;1703;51.964;7.642;2023-02-28T14:05:27;2.30;;;1.60;;
3379;SDS011;1703;51.964;7.642;2023-02-28T14:07:56;3.07;;;1.53;;
3379;SDS011;1703;51.964;7.642;2023-02-28T14:10:26;2.60;;;1.60;;
3379;SDS011;1703;51.964;7.642;2023-02-28T14:12:55;3.40;;;1.60;;
3379;SDS011;1703;51.964;7.642;2023-02-28T14:15:30;2.30;;;1.60;;
3379;SDS011;1703;51.964;7.642;2023-02-28T14:18:22;2.17;;;1.70;;
3379;SDS011;1703;51.964;7.642;2023-02-28T14:20:52;7.03;;;2.60;;
3379;SDS011;1703;51.964;7.642;2023-02-28T14:23:26;2.60;;;2.37;;
3379;SDS011;1703;51.964;7.642;2023-02-28T14:26:07;2.07;;;1.53;;
3379;SDS011;1703;51.964;7.642;2023-02-28T14:28:46;3.33;;;1.97;;
3379;SDS011;1703;51.964;7.642;2023-02-28T14:31:24;3.00;;;2.70;;
3379;SDS011;1703;51.964;7.642;2023-02-28T14:34:03;3.03;;;2.37;;
3379;SDS011;1703;51.964;7.642;2023-02-28T14:36:42;4.40;;;2.10;;
3379;SDS011;1703;51.964;7.642;2023-02-28T14:39:11;3.40;;;1.90;;
3379;SDS011;1703;51.964;7.642;2023-02-28T14:41:40;7.13;;;2.60;;
3379;SDS011;1703;51.964;7.642;2023-02-28T14:44:14;2.60;;;1.93;;
3379;SDS011;1703;51.964;7.642;2023-02-28T14:46:45;4.17;;;2.63;;
3379;SDS011;1703;51.964;7.642;2023-02-28T14:49:16;5.93;;;3.50;;
3379;SDS011;1703;51.964;7.642;2023-02-28T14:51:45;6.63;;;2.57;;
3379;SDS011;1703;51.964;7.642;2023-02-28T14:54:13;2.67;;;1.90;;
3379;SDS011;1703;51.964;7.642;2023-02-28T14:56:42;2.43;;;2.07;;
3379;SDS011;1703;51.964;7.642;2023-02-28T14:59:26;3.70;;;2.40;;
3379;SDS011;1703;51.964;7.642;2023-02-28T15:02:16;4.33;;;2.40;;
3379;SDS011;1703;51.964;7.642;2023-02-28T15:04:51;3.37;;;2.07;;
3379;SDS011;1703;51.964;7.642;2023-02-28T15:07:19;6.60;;;2.90;;
3379;SDS011;1703;51.964;7.642;2023-02-28T15:10:09;2.77;;;2.57;;
3379;SDS011;1703;51.964;7.642;2023-02-28T15:12:39;4.03;;;2.07;;
3379;SDS011;1703;51.964;7.642;2023-02-28T15:15:14;2.50;;;2.30;;
3379;SDS011;1703;51.964;7.642;2023-02-28T15:17:43;7.27;;;2.30;;
3379;SDS011;1703;51.964;7.642;2023-02-28T15:20:15;1.97;;;1.87;;
3379;SDS011;1703;51.964;7.642;2023-02-28T15:22:43;1.77;;;1.67;;
3379;SDS011;1703;51.964;7.642;2023-02-28T15:25:13;5.53;;;1.80;;
3379;SDS011;1703;51.964;7.642;2023-02-28T15:27:45;2.87;;;2.03;;
3379;SDS011;1703;51.964;7.642;2023-02-28T15:30:16;1.93;;;1.50;;
3379;SDS011;1703;51.964;7.642;2023-02-28T15:32:48;3.13;;;2.30;;
3379;SDS011;1703;51.964;7.642;2023-02-28T15:35:30;2.67;;;1.97;;
3379;SDS011;1703;51.964;7.642;2023-02-28T15:38:00;3.07;;;1.90;;
3379;SDS011;1703;51.964;7.642;2023-02-28T15:40:31;2.70;;;1.67;;
3379;SDS011;1703;51.964;7.642;2023-02-28T15:43:03;3.00;;;2.40;;
3379;SDS011;1703;51.964;7.642;2023-02-28T15:45:33;1.87;;;1.77;;
3379;SDS011;1703;51.964;7.642;2023-02-28T15:48:11;2.23;;;2.03;;
3379;SDS011;1703;51.964;7.642;2023-02-28T15:50:43;4.47;;;2.50;;
3379;SDS011;1703;51.964;7.642;2023-02-28T15:53:13;3.00;;;1.87;;
3379;SDS011;1703;51.964;7.642;2023-02-28T15:55:42;1.60;;;1.30;;
3379;SDS011;1703;51.964;7.642;2023-02-28T15:58:10;2.63;;;2.20;;
3379;SDS011;1703;51.964;7.642;2023-02-28T16:00:39;5.47;;;2.40;;
3379;SDS011;1703;51.964;7.642;2023-02-28T16:03:24;2.10;;;1.90;;
3379;SDS011;1703;51.964;7.642;2023-02-28T16:08:50;8.60;;;2.30;;
3379;SDS011;1703;51.964;7.642;2023-02-28T16:11:18;4.37;;;1.60;;
3379;SDS011;1703;51.964;7.642;2023-02-28T16:13:46;3.10;;;2.10;;